• Join FlightAware (Why Join?)
  • Login
  • US Flag 
04:05AM EST


 

Airport Tracker/Info


-or-


 

Live Flight TrackerFlight Track Log ✈ RPA3121 ✈ 17-Jul-2013 ✈ KPHL - KCHS

Flight Track Log - Related Links

Times and Time Zones

All times are in EDT time to prevent confusion due to time zone crossing. See the RPA3121 flight status page for this flight to view local times or setup timezone preferences in your user account.

Time Position Orientation Groundspeed Altitude Reporting Facility
EDT Latitude Longitude Course Direction KTS MPH feet Rate Location/Type
10:23AM 39.8230 -75.3210 219° Southwest 189 217 1,500  Level FlightAware
10:23AM 39.7980 -75.3460 218° Southwest 228 262 2,300 2,040 Climbing FlightAware
10:24AM 39.7650 -75.3800 218° Southwest 267 307 3,500 2,160 Climbing FlightAware
10:24AM 39.7340 -75.3930 198° South 262 302 4,500 2,460 Climbing FlightAware
10:25AM 39.7050 -75.3860 169° South 268 308 5,600 1,260 Climbing FlightAware
10:25AM 39.6780 -75.3770 166° South 268 308 5,600 2,340 Level FlightAware
10:26AM 39.6175 -75.3625 166° South 274 315 8,400 2,640 Climbing Washington Center
10:27AM 39.5342 -75.3386 168° South 293 337 10,300 1,680 Climbing Washington Center
10:28AM 39.4486 -75.3389 180° South 328 377 11,800 1,740 Climbing Washington Center
10:29AM 39.3342 -75.3581 187° South 352 405 13,800 1,800 Climbing Washington Center
10:30AM 39.2319 -75.3772 188° South 364 419 15,500 1,620 Climbing Washington Center
10:31AM 39.1319 -75.3908 186° South 370 426 17,100 1,380 Climbing Washington Center
10:32AM 39.0256 -75.4072 187° South 370 426 18,300 1,260 Climbing Washington Center
10:33AM 38.9214 -75.4236 187° South 375 432 19,600 1,380 Climbing Washington Center
10:34AM 38.8153 -75.4397 187° South 380 437 21,100 1,260 Climbing Washington Center
10:35AM 38.7069 -75.4586 188° South 390 449 22,200 1,080 Climbing Washington Center
10:36AM 38.5964 -75.4747 186° South 390 449 23,300 960 Climbing Washington Center
10:37AM 38.4839 -75.4883 185° South 401 461 24,200 960 Climbing Washington Center
10:38AM 38.3711 -75.5069 187° South 407 468 25,300 1,020 Climbing Washington Center
10:39AM 38.2711 -75.5758 208° Southwest 407 468 26,300 900 Climbing Washington Center
10:40AM 38.1878 -75.6603 219° Southwest 407 468 27,200 900 Climbing Washington Center
10:41AM 38.0917 -75.7447 215° Southwest 418 481 28,100 840 Climbing Washington Center
10:42AM 37.9956 -75.8342 216° Southwest 424 488 29,000 900 Climbing Washington Center
10:43AM 37.8975 -75.9286 217° Southwest 437 503 30,000 900 Climbing Washington Center
10:44AM 37.7992 -76.0203 216° Southwest 442 509 30,900 900 Climbing Washington Center
10:45AM 37.6922 -76.1272 218° Southwest 447 514 31,800 540 Climbing Washington Center
10:46AM 37.6003 -76.2053 214° Southwest 447 514 32,000 60 Climbing Washington Center
10:47AM 37.5058 -76.2908 216° Southwest 436 502 32,000  Level Washington Center
10:48AM 37.4114 -76.3789 217° Southwest 431 496 32,000  Level Washington Center
10:49AM 37.3128 -76.4667 215° Southwest 431 496 32,000  Level Washington Center
10:50AM 37.2161 -76.5542 216° Southwest 431 496 32,000  Level Washington Center
10:51AM 37.1194 -76.6442 217° Southwest 431 496 32,000  Level Washington Center
10:52AM 37.0247 -76.7314 216° Southwest 431 496 32,000  Level Washington Center
10:53AM 36.9300 -76.8183 216° Southwest 431 496 32,000  Level Washington Center
10:54AM 36.8311 -76.9050 215° Southwest 431 496 32,000  Level Washington Center
10:55AM 36.7361 -76.9914 216° Southwest 431 496 32,000  Level Washington Center
10:56AM 36.6414 -77.0831 218° Southwest 431 496 32,000  Level Washington Center
10:57AM 36.5483 -77.1692 217° Southwest 431 496 32,000  Level Washington Center
10:58AM 36.4553 -77.2603 218° Southwest 431 496 32,000  Level Washington Center
10:59AM 36.3603 -77.3433 215° Southwest 431 496 32,000  Level Washington Center
11:00AM 36.2669 -77.4367 219° Southwest 437 503 32,000  Level Washington Center
11:01AM 36.1656 -77.5294 216° Southwest 432 497 32,000  Level Washington Center
11:02AM 36.0661 -77.6117 214° Southwest 432 497 32,000  Level Washington Center
11:03AM 35.9686 -77.6914 214° Southwest 432 497 32,000  Level Washington Center
11:04AM 35.8714 -77.7683 213° Southwest 432 497 32,000  Level Washington Center
11:05AM 35.7717 -77.8475 213° Southwest 426 490 32,000  Level Washington Center
11:06AM 35.6742 -77.9264 213° Southwest 426 490 32,000  Level Washington Center
11:07AM 35.5725 -78.0053 212° Southwest 426 490 32,000  Level Washington Center
11:08AM 35.4750 -78.0814 212° Southwest 426 490 32,000  Level Washington Center
11:09AM 35.3733 -78.1597 212° Southwest 426 490 32,000  Level Washington Center
11:10AM 35.2733 -78.2378 213° Southwest 426 490 32,000  Level Washington Center
11:11AM 35.1756 -78.3186 214° Southwest 426 490 32,000  Level Washington Center
11:12AM 35.0844 -78.3892 212° Southwest 426 490 32,000  Level Washington Center
11:13AM 34.9864 -78.4667 213° Southwest 426 490 32,000  Level Washington Center
11:14AM 34.8886 -78.5444 213° Southwest 426 490 32,000 -660 Level Washington Center
11:15AM 34.7333 -78.6639 212° Southwest 405 466 30,500 -1,560 Descending Jacksonville Center
11:16AM 34.6297 -78.7444 213° Southwest 426 490 28,100 -840 Descending Jacksonville Center
11:18AM 34.4244 -78.9106 214° Southwest 444 511 28,000 -420 Descending Jacksonville Center
11:19AM 34.3225 -78.9881 212° Southwest 444 511 27,000 -1,440 Descending Jacksonville Center
11:20AM 34.2181 -79.0456 204° Southwest 434 499 25,200 -1,500 Descending Jacksonville Center
11:21AM 34.1131 -79.0953 201° Southwest 418 481 24,000 -600 Descending Jacksonville Center
11:22AM 34.0122 -79.1397 200° South 406 467 24,000 -600 Level Jacksonville Center
11:23AM 33.9072 -79.1867 200° South 406 467 22,900 -1,560 Descending Jacksonville Center
11:24AM 33.8061 -79.2311 200° South 401 461 20,900 -2,040 Descending Jacksonville Center
11:25AM 33.7161 -79.2922 209° Southwest 388 447 18,900 -1,860 Descending Jacksonville Center
11:26AM 33.6261 -79.3581 211° Southwest 377 434 17,200 -1,860 Descending Jacksonville Center
11:27AM 33.5425 -79.4214 212° Southwest 377 434 15,200 -1,920 Descending Jacksonville Center
11:28AM 33.4564 -79.4844 211° Southwest 365 420 13,400 -1,860 Descending Jacksonville Center
11:29AM 33.3789 -79.5447 213° Southwest 355 409 11,500 -1,200 Descending Jacksonville Center
11:30AM 33.2947 -79.6050 211° Southwest 350 403 11,000 -300 Descending Jacksonville Center
11:31AM 33.2169 -79.6650 213° Southwest 350 403 11,000 -600 Level Jacksonville Center
11:32AM 33.1433 -79.7197 212° Southwest 337 388 9,800 -1,440 Descending Jacksonville Center
11:33AM 33.0686 -79.7397 193° South 295 339 8,200 -1,680 Descending Jacksonville Center
11:34AM 32.9853 -79.7400 180° South 290 334 6,500 -1,680 Descending Jacksonville Center
11:35AM 32.9236 -79.7794 208° Southwest 285 328 4,900 8,700 Descending Jacksonville Center
11:36AM 32.8494 -79.8167 203° Southwest 285 328 24,000 9,540 Climbing Jacksonville Center
11:37AM 32.7833 -79.8483 202° Southwest 285 328 24,000  Level Jacksonville Center